Time;durP1;ratioP1;P1;durP2;ratioP2;P2;SDS_P1;SDS_P2;PMS_P1;PMS_P2;Temp;Humidity;BMP_temperature;BMP_pressure;BME280_temperature;BME280_humidity;BME280_pressure;Samples;Min_cycle;Max_cycle;Signal;HPM_P1;HPM_P2
2021/03/03 00:00:19;;;;;;;92.40;52.63;;;;;;;1.38;76.68;101715.36;124684;1105;104316;-77
2021/03/03 00:03:06;;;;;;;102.27;54.87;;;;;;;1.41;76.28;101712.87;124680;1105;103970;-77
2021/03/03 00:05:33;;;;;;;97.63;53.50;;;;;;;1.44;76.08;101715.55;124714;1105;104271;-76
2021/03/03 00:08:00;;;;;;;94.40;53.23;;;;;;;1.45;76.27;101718.16;124706;1106;104226;-78
2021/03/03 00:10:27;;;;;;;95.37;54.23;;;;;;;1.50;76.11;101716.59;124644;1105;104470;-77
2021/03/03 00:12:54;;;;;;;92.97;53.23;;;;;;;1.51;75.85;101712.31;124682;1105;104213;-77
2021/03/03 00:15:22;;;;;;;97.03;54.47;;;;;;;1.53;75.89;101720.94;124701;1105;104168;-77
2021/03/03 00:17:49;;;;;;;90.63;51.83;;;;;;;1.55;75.70;101715.84;124674;1105;104252;-77
2021/03/03 00:20:16;;;;;;;96.23;52.47;;;;;;;1.54;75.89;101712.39;124627;1105;104269;-77
2021/03/03 00:22:44;;;;;;;95.13;53.33;;;;;;;1.56;75.85;101710.73;124655;1105;104194;-77
2021/03/03 00:25:11;;;;;;;99.97;57.30;;;;;;;1.56;75.91;101710.73;124677;1103;104281;-77
2021/03/03 00:27:38;;;;;;;101.47;56.67;;;;;;;1.59;75.61;101700.52;124663;1105;104208;-77
2021/03/03 00:30:16;;;;;;;107.80;57.47;;;;;;;1.61;75.75;101703.14;124727;1105;104127;-77
2021/03/03 00:32:44;;;;;;;106.83;58.53;;;;;;;1.57;75.59;101699.62;124746;1106;104261;-77
2021/03/03 00:35:12;;;;;;;91.90;51.77;;;;;;;1.53;75.66;101700.37;124802;1105;104227;-77
2021/03/03 00:37:40;;;;;;;98.23;55.30;;;;;;;1.52;75.81;101698.63;124732;1105;104175;-77
2021/03/03 00:40:08;;;;;;;101.10;55.33;;;;;;;1.51;75.78;101691.75;124700;1105;103076;-77
2021/03/03 00:42:36;;;;;;;92.87;51.47;;;;;;;1.47;75.53;101698.51;124705;1105;104178;-77
2021/03/03 00:45:05;;;;;;;96.37;52.00;;;;;;;1.44;75.78;101690.72;124518;1105;105353;-78
2021/03/03 00:47:32;;;;;;;103.53;54.90;;;;;;;1.44;75.80;101700.12;124748;1105;105347;-77
2021/03/03 00:50:01;;;;;;;93.87;49.63;;;;;;;1.45;75.96;101701.87;124741;1106;104181;-77
2021/03/03 00:52:29;;;;;;;102.67;53.37;;;;;;;1.45;76.00;101702.73;124780;1106;104198;-78
2021/03/03 00:54:56;;;;;;;108.03;55.88;;;;;;;1.45;75.81;101707.02;124675;1106;104279;-78
2021/03/03 00:57:23;;;;;;;108.60;57.97;;;;;;;1.45;75.85;101704.44;124676;1105;104239;-78
2021/03/03 00:59:51;;;;;;;110.27;56.43;;;;;;;1.47;75.97;101702.78;124701;1106;104201;-78
2021/03/03 01:02:18;;;;;;;105.70;57.10;;;;;;;1.50;75.94;101702.86;124663;1105;104185;-78
2021/03/03 01:04:46;;;;;;;121.63;63.37;;;;;;;1.52;76.04;101706.34;124710;1105;104194;-78
2021/03/03 01:07:13;;;;;;;100.33;54.15;;;;;;;1.53;75.98;101702.07;124777;1105;104182;-78
2021/03/03 01:09:40;;;;;;;96.70;53.50;;;;;;;1.54;75.69;101691.83;124649;1106;104246;-77
2021/03/03 01:12:08;;;;;;;93.62;51.85;;;;;;;1.57;75.88;101696.17;124792;1105;104144;-77
2021/03/03 01:14:35;;;;;;;101.87;54.00;;;;;;;1.58;75.74;101690.20;124724;1103;104191;-77
2021/03/03 01:17:03;;;;;;;116.73;61.27;;;;;;;1.61;75.82;101683.44;124692;1105;104283;-77
2021/03/03 01:19:35;;;;;;;102.43;52.77;;;;;;;1.60;75.55;101680.83;124600;1105;104290;-77
2021/03/03 01:22:02;;;;;;;97.00;51.30;;;;;;;1.60;75.63;101679.12;124659;1106;104161;-77
2021/03/03 01:24:30;;;;;;;98.50;51.30;;;;;;;1.61;75.54;101670.58;124645;1105;104214;-78
2021/03/03 01:26:57;;;;;;;96.67;50.87;;;;;;;1.62;75.47;101664.64;124695;1105;104261;-77
2021/03/03 01:29:24;;;;;;;97.80;50.07;;;;;;;1.63;75.34;101675.80;124728;1105;104232;-77
2021/03/03 01:31:51;;;;;;;91.97;48.60;;;;;;;1.59;75.15;101667.09;124692;1105;104194;-77
2021/03/03 01:34:18;;;;;;;95.73;50.60;;;;;;;1.56;75.29;101672.16;124721;1105;104262;-77
2021/03/03 01:36:45;;;;;;;103.87;53.37;;;;;;;1.53;75.57;101663.50;124699;1105;104181;-77
2021/03/03 01:39:12;;;;;;;98.60;49.83;;;;;;;1.51;75.43;101666.03;124703;1105;104730;-78
2021/03/03 01:41:39;;;;;;;102.80;52.13;;;;;;;1.48;75.33;101664.25;124703;1105;104203;-78
2021/03/03 01:44:06;;;;;;;100.57;51.03;;;;;;;1.50;74.95;101659.15;124681;1105;105136;-78
2021/03/03 01:46:33;;;;;;;99.30;50.40;;;;;;;1.52;75.29;101657.48;124738;1106;104256;-77
2021/03/03 01:49:01;;;;;;;94.40;49.77;;;;;;;1.51;75.29;101660.89;124717;1105;104117;-77
2021/03/03 01:51:29;;;;;;;93.90;50.23;;;;;;;1.49;75.48;101653.14;124655;1105;104213;-77
2021/03/03 01:53:56;;;;;;;97.43;50.37;;;;;;;1.45;75.26;101645.31;124682;1105;105114;-77
2021/03/03 01:56:23;;;;;;;101.20;51.53;;;;;;;1.41;75.38;101648.59;124722;1105;104153;-78
2021/03/03 01:58:50;;;;;;;102.90;51.45;;;;;;;1.39;75.43;101650.27;124800;1103;104391;-77
2021/03/03 02:01:19;;;;;;;102.13;50.97;;;;;;;1.36;75.50;101650.18;124764;1106;104383;-77
2021/03/03 02:03:48;;;;;;;102.40;50.87;;;;;;;1.32;75.70;101644.09;124649;1105;104255;-77
2021/03/03 02:06:26;;;;;;;109.93;52.70;;;;;;;1.33;75.80;101642.39;124770;1105;104255;-77
2021/03/03 02:09:07;;;;;;;114.50;54.40;;;;;;;1.36;75.89;101642.47;124725;1105;104175;-78
2021/03/03 02:12:00;;;;;;;109.73;53.53;;;;;;;1.35;75.78;101640.73;124724;1106;104128;-78
2021/03/03 02:14:29;;;;;;;114.87;55.10;;;;;;;1.35;75.90;101640.73;124703;1105;104253;-78
2021/03/03 02:16:57;;;;;;;98.87;49.53;;;;;;;1.34;75.83;101641.56;124705;1105;104059;-78
2021/03/03 02:19:31;;;;;;;105.33;51.07;;;;;;;1.29;75.41;101638.88;124655;1105;104159;-78
2021/03/03 02:22:11;;;;;;;108.33;53.07;;;;;;;1.25;75.86;101642.16;124731;1105;104269;-78
2021/03/03 02:24:51;;;;;;;112.33;52.77;;;;;;;1.23;76.01;101637.81;124725;1105;101744;-78
2021/03/03 02:27:22;;;;;;;109.03;52.43;;;;;;;1.21;76.04;101643.78;124701;1106;104249;-78
2021/03/03 02:29:51;;;;;;;111.97;51.63;;;;;;;1.23;76.04;101637.81;124705;1106;104280;-78
2021/03/03 02:32:19;;;;;;;105.30;49.45;;;;;;;1.24;76.18;101639.55;124732;1105;104216;-78
2021/03/03 02:34:47;;;;;;;102.60;47.93;;;;;;;1.24;76.12;101634.41;124741;1105;104103;-78
2021/03/03 02:37:18;;;;;;;106.50;51.63;;;;;;;1.25;76.45;101637.02;124653;1105;104597;-78
2021/03/03 02:39:46;;;;;;;105.20;48.43;;;;;;;1.24;76.38;101630.14;124745;1105;104246;-78
2021/03/03 02:42:15;;;;;;;99.30;47.97;;;;;;;1.25;76.06;101638.72;124697;1105;104300;-77
2021/03/03 02:44:42;;;;;;;115.07;52.57;;;;;;;1.26;76.29;101632.75;124676;1105;104287;-77
2021/03/03 02:47:10;;;;;;;111.20;52.83;;;;;;;1.28;76.52;101634.56;124704;1105;104150;-77
2021/03/03 02:49:37;;;;;;;110.33;49.83;;;;;;;1.30;76.20;101639.74;124704;1105;104224;-77
2021/03/03 02:52:04;;;;;;;106.63;47.30;;;;;;;1.31;76.42;101634.64;124700;1105;104460;-77
2021/03/03 02:54:31;;;;;;;102.47;47.90;;;;;;;1.33;76.11;101634.68;124726;1105;104175;-78
2021/03/03 02:56:58;;;;;;;104.38;49.20;;;;;;;1.36;76.17;101634.76;124696;1105;104239;-75
2021/03/03 02:59:36;;;;;;;105.33;48.47;;;;;;;1.37;76.07;101629.66;124734;1105;104239;-77
2021/03/03 03:02:12;;;;;;;95.97;45.47;;;;;;;1.35;76.30;101633.89;124707;1103;104197;-77
2021/03/03 03:04:44;;;;;;;102.20;48.53;;;;;;;1.33;76.15;101640.69;124660;1105;104146;-77
2021/03/03 03:07:21;;;;;;;107.87;50.27;;;;;;;1.37;76.17;101637.37;124712;1105;104293;-77
2021/03/03 03:09:50;;;;;;;108.60;50.90;;;;;;;1.42;76.57;101635.78;124726;1106;104024;-77
2021/03/03 03:12:20;;;;;;;109.00;49.97;;;;;;;1.43;76.14;101632.38;124757;1105;104264;-77
2021/03/03 03:14:51;;;;;;;105.97;49.00;;;;;;;1.43;76.31;101640.09;124662;1105;104322;-77
2021/03/03 03:17:20;;;;;;;114.83;52.40;;;;;;;1.44;76.21;101633.28;124631;1105;104234;-77
2021/03/03 03:19:51;;;;;;;123.90;55.50;;;;;;;1.46;76.14;101631.62;124677;1105;104290;-78
2021/03/03 03:22:21;;;;;;;120.60;53.07;;;;;;;1.49;76.25;101639.41;124714;1103;104318;-78
2021/03/03 03:24:50;;;;;;;118.57;53.13;;;;;;;1.51;76.32;101630.04;124649;1105;104605;-77
2021/03/03 03:27:18;;;;;;;104.57;48.13;;;;;;;1.50;75.98;101630.87;124720;1105;104269;-77
2021/03/03 03:29:46;;;;;;;94.30;44.47;;;;;;;1.45;75.79;101629.89;124646;1105;104283;-77
2021/03/03 03:32:24;;;;;;;103.33;49.83;;;;;;;1.39;75.97;101624.55;124589;1105;104130;-78
2021/03/03 03:34:53;;;;;;;104.00;50.83;;;;;;;1.34;75.85;101623.56;124715;1105;104395;-77
2021/03/03 03:37:21;;;;;;;106.20;49.60;;;;;;;1.33;76.27;101624.40;124701;1106;104226;-77
2021/03/03 03:39:48;;;;;;;103.60;47.77;;;;;;;1.26;76.32;101625.04;124686;1105;104286;-77
2021/03/03 03:42:17;;;;;;;108.83;48.00;;;;;;;1.25;76.21;101620.73;124651;1105;104292;-77
2021/03/03 03:44:46;;;;;;;104.90;48.73;;;;;;;1.24;76.48;101619.86;124717;1105;104168;-77
2021/03/03 03:47:18;;;;;;;99.33;46.27;;;;;;;1.16;76.18;101622.23;124747;1105;104253;-78
2021/03/03 03:49:47;;;;;;;108.97;52.10;;;;;;;1.09;76.22;101615.19;124591;1105;104313;-77
2021/03/03 03:52:16;;;;;;;102.70;48.67;;;;;;;1.07;76.63;101621.09;124654;1105;104210;-77
2021/03/03 03:54:53;;;;;;;108.33;50.80;;;;;;;1.02;76.92;101628.67;124761;1105;104371;-77
2021/03/03 03:57:21;;;;;;;110.85;51.00;;;;;;;0.99;77.13;101620.88;124728;1105;104338;-77
2021/03/03 03:59:49;;;;;;;104.53;49.30;;;;;;;0.95;76.90;101624.20;124722;1106;104233;-77
2021/03/03 04:02:17;;;;;;;103.37;49.67;;;;;;;0.87;77.20;101628.22;124700;1105;103986;-77
2021/03/03 04:04:45;;;;;;;92.63;45.70;;;;;;;0.80;77.11;101621.17;124688;1105;102906;-77
2021/03/03 04:07:12;;;;;;;95.40;46.93;;;;;;;0.77;77.28;101616.83;124693;1105;104607;-77
2021/03/03 04:09:39;;;;;;;95.33;45.93;;;;;;;0.75;77.33;101617.61;124659;1105;104224;-77
2021/03/03 04:12:07;;;;;;;95.65;46.23;;;;;;;0.73;77.16;101609.86;124718;1105;104226;-77
2021/03/03 04:14:34;;;;;;;90.70;44.40;;;;;;;0.74;77.70;101610.73;124646;1105;104216;-77
2021/03/03 04:17:01;;;;;;;97.00;45.97;;;;;;;0.73;77.50;101615.00;124712;1105;104169;-77
2021/03/03 04:19:29;;;;;;;93.53;45.67;;;;;;;0.75;78.04;101608.20;124744;1106;104692;-77
2021/03/03 04:21:56;;;;;;;98.43;46.67;;;;;;;0.82;77.86;101614.38;124701;1106;104213;-77
2021/03/03 04:24:23;;;;;;;95.53;46.27;;;;;;;0.80;77.40;101618.61;124721;1105;104560;-77
2021/03/03 04:26:50;;;;;;;100.47;49.23;;;;;;;0.84;77.58;101618.73;124707;1105;105458;-77
2021/03/03 04:29:17;;;;;;;107.33;51.60;;;;;;;0.81;77.86;101613.52;124755;1105;104162;-77
2021/03/03 04:31:44;;;;;;;103.90;49.40;;;;;;;0.79;77.44;101614.30;124606;1105;104299;-77
2021/03/03 04:34:11;;;;;;;102.53;50.07;;;;;;;0.76;77.77;101607.38;124689;1105;104118;-77
2021/03/03 04:36:39;;;;;;;101.03;48.77;;;;;;;0.76;77.54;101609.08;124708;1105;104121;-78
2021/03/03 04:39:06;;;;;;;104.97;51.60;;;;;;;0.77;78.08;101603.12;124695;1105;104147;-78
2021/03/03 04:41:33;;;;;;;107.50;52.00;;;;;;;0.76;77.56;101593.67;124665;1105;104698;-78
2021/03/03 04:44:00;;;;;;;103.83;49.83;;;;;;;0.73;77.81;101604.73;124700;1105;104297;-77
2021/03/03 04:46:27;;;;;;;86.05;42.80;;;;;;;0.67;77.95;101609.66;124715;1106;105124;-77
2021/03/03 04:48:54;;;;;;;101.13;50.13;;;;;;;0.59;77.90;101608.58;124729;1105;104226;-77
2021/03/03 04:51:21;;;;;;;109.13;50.00;;;;;;;0.55;77.83;101599.92;124799;1105;104219;-77
2021/03/03 04:53:49;;;;;;;112.20;52.83;;;;;;;0.52;78.41;101598.92;124724;1106;104328;-77
2021/03/03 04:56:16;;;;;;;120.33;54.15;;;;;;;0.50;78.34;101601.45;124739;1106;104166;-77
2021/03/03 04:58:43;;;;;;;114.03;50.90;;;;;;;0.42;78.48;101602.92;124749;1105;104251;-78
2021/03/03 05:01:11;;;;;;;113.53;51.37;;;;;;;0.34;78.83;101601.80;124731;1105;104172;-77
2021/03/03 05:03:40;;;;;;;124.73;52.70;;;;;;;0.21;78.39;101595.44;124675;1105;104634;-76
2021/03/03 05:06:07;;;;;;;114.80;49.70;;;;;;;0.13;78.84;101591.74;124644;1106;104408;-77
2021/03/03 05:08:34;;;;;;;109.13;49.30;;;;;;;0.09;78.75;101589.91;124684;1106;104127;-77
2021/03/03 05:11:01;;;;;;;102.43;44.47;;;;;;;0.06;79.13;101591.52;124640;1105;104252;-77
2021/03/03 05:13:29;;;;;;;97.57;43.73;;;;;;;-0.01;78.80;101590.43;124698;1105;104143;-77
2021/03/03 05:15:58;;;;;;;95.80;43.97;;;;;;;-0.05;79.00;101579.20;124724;1106;104277;-77
2021/03/03 05:18:25;;;;;;;94.70;41.90;;;;;;;-0.06;79.12;101586.85;124601;1105;104351;-78
2021/03/03 05:20:52;;;;;;;96.77;43.00;;;;;;;-0.11;79.41;101588.41;124648;1105;104252;-76
2021/03/03 05:23:30;;;;;;;106.03;47.20;;;;;;;-0.12;79.77;101597.80;124744;1105;104123;-77
2021/03/03 05:26:01;;;;;;;105.13;46.07;;;;;;;-0.09;79.44;101595.33;124733;1106;105030;-77
2021/03/03 05:28:29;;;;;;;101.57;44.17;;;;;;;-0.11;79.26;101594.41;124657;1105;104252;-77
2021/03/03 05:30:56;;;;;;;112.37;46.57;;;;;;;-0.07;79.30;101597.94;124730;1105;104376;-77
2021/03/03 05:33:28;;;;;;;105.90;46.03;;;;;;;-0.02;79.59;101594.69;124693;1105;104634;-77
2021/03/03 05:35:59;;;;;;;107.67;46.53;;;;;;;0.01;79.54;101604.20;124696;1105;104258;-77
2021/03/03 05:38:26;;;;;;;112.90;47.77;;;;;;;0.07;79.52;101599.26;124708;1105;102440;-77
2021/03/03 05:40:56;;;;;;;102.50;44.37;;;;;;;0.10;79.18;101601.05;124601;1105;104127;-77
2021/03/03 05:43:23;;;;;;;127.97;48.90;;;;;;;0.12;79.98;101607.96;124613;1105;104272;-77
2021/03/03 05:45:51;;;;;;;132.67;48.60;;;;;;;0.11;79.72;101605.34;124715;1106;104165;-77
2021/03/03 05:48:21;;;;;;;127.20;48.00;;;;;;;0.06;79.89;101596.64;124673;1105;104101;-77
2021/03/03 05:51:03;;;;;;;132.67;46.93;;;;;;;-0.03;79.71;101597.20;124678;1105;104188;-77
2021/03/03 05:53:32;;;;;;;105.00;43.00;;;;;;;-0.09;79.50;101597.02;124651;1105;104416;-77
2021/03/03 05:56:01;;;;;;;93.20;39.17;;;;;;;-0.12;79.72;101591.80;124728;1105;104384;-76
2021/03/03 05:58:31;;;;;;;84.97;37.47;;;;;;;-0.21;79.79;101588.91;124717;1105;104198;-77
2021/03/03 06:01:00;;;;;;;96.00;38.83;;;;;;;-0.27;79.03;101594.72;124653;1106;104215;-77
2021/03/03 06:03:28;;;;;;;98.73;41.00;;;;;;;-0.25;79.85;101589.64;124491;1106;104229;-77
2021/03/03 06:05:56;;;;;;;97.90;40.13;;;;;;;-0.19;80.05;101594.95;124712;1105;104294;-77
2021/03/03 06:08:31;;;;;;;114.97;44.37;;;;;;;-0.15;80.29;101597.70;124784;1105;104383;-77
2021/03/03 06:10:59;;;;;;;107.57;40.43;;;;;;;-0.16;79.74;101595.09;124788;1105;104124;-77
2021/03/03 06:13:27;;;;;;;106.03;40.13;;;;;;;-0.15;80.14;101587.44;124755;1105;104210;-77
2021/03/03 06:15:54;;;;;;;103.77;42.90;;;;;;;-0.14;80.14;101589.19;124796;1105;104139;-77
2021/03/03 06:18:24;;;;;;;108.37;41.57;;;;;;;-0.11;80.30;101588.41;124680;1105;104203;-76
2021/03/03 06:20:53;;;;;;;108.27;41.97;;;;;;;-0.12;79.85;101587.53;124712;1105;104210;-76
2021/03/03 06:23:22;;;;;;;97.47;39.67;;;;;;;-0.09;80.02;101585.06;124768;1105;104267;-77
2021/03/03 06:26:09;;;;;;;105.17;41.53;;;;;;;-0.03;79.90;101589.51;124664;1105;103967;-77
2021/03/03 06:28:40;;;;;;;104.47;42.47;;;;;;;-0.03;80.34;101587.81;124664;1105;104675;-78
2021/03/03 06:31:30;;;;;;;108.80;43.00;;;;;;;-0.02;80.11;101586.13;124696;1105;104293;-77
2021/03/03 06:34:17;;;;;;;100.07;40.00;;;;;;;-0.04;79.74;101591.20;124737;1106;104133;-77
2021/03/03 06:36:47;;;;;;;133.13;43.53;;;;;;;-0.06;80.06;101592.85;124667;1105;104150;-78
2021/03/03 06:39:17;;;;;;;113.93;43.43;;;;;;;-0.10;80.50;101585.89;124691;1105;104185;-78
2021/03/03 06:41:44;;;;;;;112.03;42.97;;;;;;;-0.14;79.83;101584.05;124627;1105;104168;-78
2021/03/03 06:44:11;;;;;;;119.77;42.90;;;;;;;-0.17;80.97;101583.95;124727;1105;104184;-78
2021/03/03 06:46:39;;;;;;;102.17;41.57;;;;;;;-0.19;80.16;101577.88;124717;1105;104261;-78
2021/03/03 06:49:21;;;;;;;113.15;43.55;;;;;;;-0.20;80.46;101576.14;124709;1105;104147;-78
2021/03/03 06:51:50;;;;;;;114.83;42.10;;;;;;;;;;124748;1105;104240;-78
2021/03/03 06:54:20;;;;;;;121.03;45.43;;;;;;;-0.18;80.69;101571.06;124778;1105;104150;-79
2021/03/03 06:56:49;;;;;;;90.27;38.80;;;;;;;-0.19;81.05;101570.19;124809;1105;104254;-79
2021/03/03 06:59:30;;;;;;;105.73;42.50;;;;;;;-0.24;80.93;101566.61;124695;1105;104222;-78
2021/03/03 07:02:18;;;;;;;108.60;43.20;;;;;;;-0.30;80.87;101563.86;124734;1106;104316;-78
2021/03/03 07:05:05;;;;;;;109.57;43.70;;;;;;;-0.36;80.87;101553.38;124653;1105;104125;-79
2021/03/03 07:07:32;;;;;;;99.37;41.83;;;;;;;-0.41;80.42;101550.67;124901;1105;104235;-78
2021/03/03 07:09:59;;;;;;;94.83;37.73;;;;;;;-0.43;80.68;101556.58;124668;1105;104239;-79
2021/03/03 07:12:34;;;;;;;81.97;35.37;;;;;;;-0.45;80.14;101550.53;124797;1105;102968;-79
2021/03/03 07:15:05;;;;;;;71.40;32.10;;;;;;;-0.47;80.82;101553.05;124714;1105;104631;-80
2021/03/03 07:17:34;;;;;;;92.27;36.63;;;;;;;-0.47;80.61;101550.48;124780;1105;102999;-78
2021/03/03 07:20:06;;;;;;;86.13;36.20;;;;;;;-0.45;80.54;101555.66;124692;1106;104127;-78
2021/03/03 07:22:49;;;;;;;107.23;41.70;;;;;;;-0.40;81.11;101554.98;124673;1105;104235;-80
2021/03/03 07:25:20;;;;;;;104.40;41.17;;;;;;;-0.39;81.29;101551.59;124705;1105;102447;-80
2021/03/03 07:27:48;;;;;;;96.80;39.17;;;;;;;-0.35;80.90;101562.84;124733;1105;104220;-80
2021/03/03 07:30:17;;;;;;;103.60;41.80;;;;;;;-0.33;80.88;101562.07;124749;1105;104127;-80
2021/03/03 07:32:45;;;;;;;95.77;39.70;;;;;;;-0.34;81.09;101559.45;124704;1105;101626;-80
2021/03/03 07:35:30;;;;;;;96.30;38.30;;;;;;;-0.33;80.96;101561.20;124669;1105;104181;-80
2021/03/03 07:37:59;;;;;;;105.97;41.73;;;;;;;-0.34;81.20;101559.45;124677;1105;104159;-80
2021/03/03 07:40:29;;;;;;;103.40;39.37;;;;;;;-0.39;80.58;101556.72;124525;1105;103977;-80
2021/03/03 07:43:00;;;;;;;92.70;36.93;;;;;;;-0.42;80.88;101550.62;124791;1105;104689;-80
2021/03/03 07:45:41;;;;;;;84.30;35.17;;;;;;;-0.43;80.91;101559.14;124729;1105;104123;-80
2021/03/03 07:48:11;;;;;;;90.40;37.83;;;;;;;-0.42;81.14;101555.75;124699;1105;104258;-80
2021/03/03 07:50:40;;;;;;;83.40;36.00;;;;;;;-0.34;81.11;101551.77;124701;1105;104175;-80
2021/03/03 07:53:10;;;;;;;91.20;40.13;;;;;;;-0.28;81.08;101551.09;124749;1105;104191;-80
2021/03/03 07:55:38;;;;;;;108.90;41.70;;;;;;;-0.16;82.05;101544.67;124678;1105;104220;-80
2021/03/03 07:58:07;;;;;;;106.95;41.25;;;;;;;-0.08;81.16;101553.47;124735;1105;103126;-80
2021/03/03 08:00:42;;;;;;;86.03;37.70;;;;;;;-0.02;81.01;101547.66;124732;1106;104343;-80
2021/03/03 08:03:10;;;;;;;73.97;32.30;;;;;;;0.02;80.88;101549.52;124681;1105;104354;-80
2021/03/03 08:05:53;;;;;;;81.25;35.60;;;;;;;0.06;80.96;101547.91;124656;1105;104182;-79
2021/03/03 08:08:28;;;;;;;90.50;37.63;;;;;;;0.16;80.96;101547.35;124714;1105;104232;-79
2021/03/03 08:10:59;;;;;;;76.90;36.00;;;;;;;0.26;81.09;101545.13;124773;1105;104179;-80
2021/03/03 08:13:38;;;;;;;79.40;33.73;;;;;;;0.28;80.70;101538.34;124706;1105;102273;-80
2021/03/03 08:16:07;;;;;;;72.10;32.87;;;;;;;0.28;80.72;101543.48;124659;1105;104256;-80
2021/03/03 08:18:48;;;;;;;92.27;37.73;;;;;;;0.30;80.79;101535.82;124706;1105;103986;-80
2021/03/03 08:21:15;;;;;;;87.27;37.53;;;;;;;0.33;80.58;101535.03;124687;1105;104402;-80
2021/03/03 08:23:46;;;;;;;91.87;40.60;;;;;;;0.35;80.63;101523.98;124714;1105;102367;-80
2021/03/03 08:26:20;;;;;;;94.47;38.70;;;;;;;0.39;80.88;101528.41;124702;1106;104204;-80
2021/03/03 08:29:12;;;;;;;77.93;33.57;;;;;;;0.40;80.47;101519.02;124690;1106;105506;-80
2021/03/03 08:31:40;;;;;;;65.55;30.65;;;;;;;0.40;80.60;101517.32;124508;1105;104150;-80
2021/03/03 08:34:09;;;;;;;60.67;29.17;;;;;;;0.39;80.52;101510.45;124795;1105;104188;-80
2021/03/03 08:36:37;;;;;;;80.20;34.90;;;;;;;0.46;80.98;101509.78;124835;1106;104150;-80
2021/03/03 08:39:09;;;;;;;72.13;33.73;;;;;;;0.60;80.65;101505.92;124814;1105;104098;-80
2021/03/03 08:41:38;;;;;;;68.50;30.60;;;;;;;0.59;80.00;101509.33;124811;1105;104336;-80
2021/03/03 08:44:15;;;;;;;63.77;30.77;;;;;;;0.60;80.15;101505.92;124867;1105;104015;-80
2021/03/03 08:46:42;;;;;;;56.27;26.07;;;;;;;0.62;80.36;101498.27;124885;1105;104275;-80
2021/03/03 08:49:10;;;;;;;78.57;35.97;;;;;;;0.68;80.27;101500.12;124859;1105;102997;-80
2021/03/03 08:51:38;;;;;;;74.53;35.73;;;;;;;0.78;80.67;101502.13;124837;1106;106303;-80
2021/03/03 08:54:08;;;;;;;82.47;36.23;;;;;;;0.82;80.52;101501.38;124778;1105;103999;-80
2021/03/03 08:56:42;;;;;;;91.73;39.23;;;;;;;0.88;80.69;101496.41;124872;1105;104296;-80
2021/03/03 08:59:28;;;;;;;87.97;38.10;;;;;;;0.91;80.46;101501.65;124878;1105;104015;-80
2021/03/03 09:02:05;;;;;;;83.83;37.63;;;;;;;0.95;80.14;101497.45;124854;1105;104635;-80
2021/03/03 09:04:47;;;;;;;68.20;31.73;;;;;;;0.90;80.13;101494.77;124897;1106;104242;-80
2021/03/03 09:07:20;;;;;;;74.43;33.30;;;;;;;0.86;80.34;101492.92;124801;1105;104227;-80
2021/03/03 09:09:49;;;;;;;81.53;34.77;;;;;;;0.86;80.34;101487.78;124924;1106;104216;-80
2021/03/03 09:12:22;;;;;;;83.67;37.03;;;;;;;0.91;80.48;101491.37;124815;1105;104181;-80
2021/03/03 09:14:52;;;;;;;89.10;39.70;;;;;;;1.00;80.74;101489.03;124866;1105;102994;-80
2021/03/03 09:17:25;;;;;;;93.27;40.43;;;;;;;1.05;80.65;101484.01;124800;1105;102582;-79
2021/03/03 09:19:55;;;;;;;92.57;41.80;;;;;;;1.10;80.21;101479.89;124776;1105;104185;-79
2021/03/03 09:22:29;;;;;;;98.93;43.50;;;;;;;1.12;80.09;101479.09;124582;1105;104009;-79
2021/03/03 09:25:20;;;;;;;90.23;38.77;;;;;;;1.13;79.99;101473.12;124898;1105;104114;-79
2021/03/03 09:27:57;;;;;;;97.03;40.53;;;;;;;1.17;80.07;101467.22;124807;1105;104238;-79
2021/03/03 09:30:39;;;;;;;105.13;43.90;;;;;;;1.21;80.30;101463.89;124777;1106;104910;-79
2021/03/03 09:33:07;;;;;;;99.03;40.47;;;;;;;1.20;80.08;101456.14;124690;1105;104294;-79
2021/03/03 09:35:35;;;;;;;101.07;42.57;;;;;;;1.21;79.86;101461.32;124767;1106;104196;-79
2021/03/03 09:38:03;;;;;;;95.43;40.17;;;;;;;1.28;80.15;101456.36;124755;1105;104153;-79
2021/03/03 09:40:34;;;;;;;98.47;42.53;;;;;;;1.26;80.31;101451.18;124692;1105;104316;-79
2021/03/03 09:43:03;;;;;;;90.13;40.27;;;;;;;1.32;80.37;101448.75;124634;1105;104279;-79
2021/03/03 09:45:30;;;;;;;99.03;43.80;;;;;;;1.32;80.14;101442.74;124658;1105;104258;-79
2021/03/03 09:47:58;;;;;;;92.47;40.37;;;;;;;1.32;80.11;101447.88;124662;1105;104146;-79
2021/03/03 09:50:30;;;;;;;91.23;39.40;;;;;;;1.31;80.16;101446.14;124734;1106;104226;-79
2021/03/03 09:52:59;;;;;;;94.50;42.90;;;;;;;1.32;80.47;101448.75;124777;1105;104255;-79
2021/03/03 09:55:38;;;;;;;93.40;40.50;;;;;;;1.35;80.26;101443.68;124663;1105;104257;-79
2021/03/03 09:58:06;;;;;;;90.73;38.83;;;;;;;1.41;80.05;101437.80;124718;1105;104316;-78
2021/03/03 10:00:40;;;;;;;90.47;41.17;;;;;;;1.45;80.30;101453.37;124648;1106;104203;-79
2021/03/03 10:03:15;;;;;;;100.17;42.30;;;;;;;1.48;80.39;101442.28;124637;1105;104155;-79
2021/03/03 10:05:44;;;;;;;94.23;40.60;;;;;;;1.50;79.92;101438.05;124702;1103;103317;-79
2021/03/03 10:08:14;;;;;;;84.10;38.33;;;;;;;1.57;79.95;101436.47;124676;1105;107639;-78
2021/03/03 10:10:47;;;;;;;88.57;39.77;;;;;;;1.63;80.00;101434.94;124701;1105;103998;-78
2021/03/03 10:13:23;;;;;;;90.50;41.90;;;;;;;1.73;80.07;101430.85;124643;1105;104153;-78
2021/03/03 10:15:56;;;;;;;87.00;40.00;;;;;;;1.77;80.00;101433.52;124654;1105;104204;-78
2021/03/03 10:18:23;;;;;;;91.60;40.43;;;;;;;1.87;79.93;101433.73;124686;1105;104207;-79
2021/03/03 10:20:55;;;;;;;85.50;39.90;;;;;;;1.92;79.95;101421.84;124686;1106;103875;-81
2021/03/03 10:23:25;;;;;;;82.10;38.63;;;;;;;1.99;79.62;101423.73;124757;1105;104131;-80
2021/03/03 10:26:07;;;;;;;74.57;36.50;;;;;;;2.06;79.81;101416.16;124781;1105;104178;-80
2021/03/03 10:28:36;;;;;;;67.60;34.13;;;;;;;2.09;79.41;101412.77;124722;1105;104239;-80
2021/03/03 10:31:19;;;;;;;85.57;39.23;;;;;;;2.05;79.25;101413.55;124915;1105;104789;-81
2021/03/03 10:33:49;;;;;;;74.17;36.17;;;;;;;2.06;79.26;101398.14;124750;1105;104188;-80
2021/03/03 10:36:21;;;;;;;82.03;39.60;;;;;;;2.17;79.41;101398.38;124852;1105;104265;-80
2021/03/03 10:38:54;;;;;;;70.70;33.95;;;;;;;2.31;79.51;101394.34;124820;1105;104091;-80
2021/03/03 10:41:24;;;;;;;81.03;40.17;;;;;;;2.39;79.51;101395.38;124840;1105;104104;-79
2021/03/03 10:43:51;;;;;;;85.00;41.80;;;;;;;2.49;79.18;101387.81;124884;1106;104194;-80
2021/03/03 10:46:22;;;;;;;89.97;41.23;;;;;;;2.52;79.25;101386.20;124816;1105;104178;-81
2021/03/03 10:48:56;;;;;;;76.67;38.13;;;;;;;2.61;78.71;101391.50;124819;1105;103950;-81
2021/03/03 10:51:37;;;;;;;83.20;39.37;;;;;;;2.67;78.73;101390.73;124739;1105;104178;-79
2021/03/03 10:54:06;;;;;;;79.47;38.10;;;;;;;2.75;78.72;101383.16;124704;1105;104101;-79
2021/03/03 10:56:40;;;;;;;82.15;40.85;;;;;;;2.80;78.33;101377.24;124728;1106;102425;-79
2021/03/03 10:59:09;;;;;;;82.03;39.77;;;;;;;2.83;78.37;101371.27;124827;1105;101934;-79
2021/03/03 11:01:51;;;;;;;78.50;39.03;;;;;;;2.87;78.31;101361.06;124806;1105;104341;-79
2021/03/03 11:04:20;;;;;;;70.03;34.90;;;;;;;3.01;78.57;101362.14;124723;1105;104303;-79
2021/03/03 11:06:47;;;;;;;70.37;35.73;;;;;;;3.09;78.02;101369.15;124711;1106;105758;-79
2021/03/03 11:09:16;;;;;;;75.53;36.50;;;;;;;3.19;78.36;101361.56;124778;1105;104232;-79
2021/03/03 11:11:49;;;;;;;74.13;36.47;;;;;;;3.33;77.53;101359.21;124865;1106;104239;-80